Time;durP1;ratioP1;P1;durP2;ratioP2;P2;SDS_P1;SDS_P2;PMS_P1;PMS_P2;Temp;Humidity;BMP_temperature;BMP_pressure;BME280_temperature;BME280_humidity;BME280_pressure;Samples;Min_cycle;Max_cycle;Signal;HPM_P1;HPM_P2
2023/03/08 00:02:13;;;;;;;7.10;4.33;;;;;;;-0.39;92.70;99998.69;5030686;28;20055;-78
2023/03/08 00:04:38;;;;;;;7.57;4.57;;;;;;;-0.38;92.60;100001.25;5030866;28;20472;-78
2023/03/08 00:07:04;;;;;;;7.73;4.57;;;;;;;-0.38;92.97;100000.41;5028967;28;20032;-78
2023/03/08 00:09:29;;;;;;;8.40;4.73;;;;;;;-0.41;92.39;99996.13;5013783;28;20053;-78
2023/03/08 00:11:54;;;;;;;7.77;4.57;;;;;;;-0.42;92.80;99996.13;5030352;28;20018;-78
2023/03/08 00:14:21;;;;;;;8.90;5.17;;;;;;;-0.43;92.97;99986.75;5031881;28;20037;-78
2023/03/08 00:16:46;;;;;;;8.17;4.93;;;;;;;-0.44;93.16;99983.34;5013546;28;20035;-78
2023/03/08 00:19:12;;;;;;;9.17;4.93;;;;;;;-0.43;92.83;99981.63;5033118;28;20049;-78
2023/03/08 00:21:37;;;;;;;9.30;4.90;;;;;;;-0.44;93.47;99982.47;5032556;28;20029;-78
2023/03/08 00:24:03;;;;;;;9.57;5.17;;;;;;;-0.44;92.85;99985.03;5033956;28;20071;-78
2023/03/08 00:26:28;;;;;;;9.00;5.20;;;;;;;-0.46;92.90;99985.03;5031992;28;20429;-78
2023/03/08 00:28:53;;;;;;;8.33;4.80;;;;;;;-0.45;93.21;99994.41;5033456;28;20021;-78
2023/03/08 00:31:18;;;;;;;8.93;5.17;;;;;;;-0.44;93.81;99990.13;5017251;28;20408;-78
2023/03/08 00:33:44;;;;;;;8.57;5.23;;;;;;;-0.42;93.12;99988.44;5031601;28;20029;-78
2023/03/08 00:36:14;;;;;;;8.50;5.13;;;;;;;-0.41;93.57;99988.44;5016818;28;20025;-78
2023/03/08 00:38:40;;;;;;;7.57;4.70;;;;;;;-0.44;93.01;99988.47;5033739;28;20045;-79
2023/03/08 00:41:05;;;;;;;11.00;5.60;;;;;;;-0.44;93.32;99993.56;5031633;28;20469;-79
2023/03/08 00:43:31;;;;;;;10.27;6.13;;;;;;;-0.42;93.77;99983.34;5016331;28;20032;-79
2023/03/08 00:45:57;;;;;;;13.03;6.17;;;;;;;-0.40;93.68;99986.75;5034020;28;20028;-79
2023/03/08 00:48:23;;;;;;;9.03;5.73;;;;;;;-0.36;93.75;99986.78;5033947;28;20549;-78
2023/03/08 00:50:48;;;;;;;9.80;5.93;;;;;;;-0.36;93.60;99985.94;5033660;28;20057;-78
2023/03/08 00:53:13;;;;;;;10.77;5.93;;;;;;;-0.36;93.56;99980.84;5033215;28;20057;-79
2023/03/08 00:55:45;;;;;;;9.80;5.93;;;;;;;-0.37;93.91;99979.97;5032956;28;20035;-79
2023/03/08 00:58:10;;;;;;;11.13;6.15;;;;;;;-0.35;93.38;99977.44;5033448;28;20022;-78
2023/03/08 01:00:35;;;;;;;10.73;6.10;;;;;;;-0.37;93.47;99979.13;5033490;28;20029;-79
2023/03/08 01:03:00;;;;;;;11.77;6.33;;;;;;;-0.37;93.85;99979.97;5033596;28;20509;-79
2023/03/08 01:05:26;;;;;;;12.53;6.63;;;;;;;-0.38;93.33;99978.25;5033338;28;20033;-79
2023/03/08 01:07:51;;;;;;;10.57;6.13;;;;;;;-0.36;93.37;99976.56;5033054;28;20481;-79
2023/03/08 01:10:17;;;;;;;14.27;6.93;;;;;;;-0.36;93.74;99971.44;5033809;28;20220;-79
2023/03/08 01:12:42;;;;;;;11.40;6.83;;;;;;;-0.33;93.42;99968.03;5033247;28;20037;-79
2023/03/08 01:15:07;;;;;;;12.77;6.83;;;;;;;-0.32;93.67;99967.19;5032509;28;20026;-79
2023/03/08 01:17:33;;;;;;;12.07;6.70;;;;;;;-0.30;93.65;99962.94;5032229;28;20063;-79
2023/03/08 01:19:58;;;;;;;11.63;6.90;;;;;;;-0.28;93.87;99952.75;5033848;28;20045;-79
2023/03/08 01:22:23;;;;;;;13.27;7.30;;;;;;;-0.27;94.30;99950.19;5032192;28;20095;-79
2023/03/08 01:24:49;;;;;;;12.30;7.10;;;;;;;-0.28;93.79;99952.75;5033577;28;20585;-79
2023/03/08 01:27:15;;;;;;;13.00;7.17;;;;;;;-0.29;93.79;99939.09;5031775;28;20392;-78
2023/03/08 01:29:41;;;;;;;11.63;6.60;;;;;;;-0.29;93.11;99938.25;5031571;28;20079;-78
2023/03/08 01:32:08;;;;;;;12.23;7.07;;;;;;;-0.31;93.35;99939.09;5029847;28;20033;-78
2023/03/08 01:34:35;;;;;;;12.60;6.93;;;;;;;-0.33;93.36;99934.81;5016574;28;20033;-79
2023/03/08 01:37:00;;;;;;;13.27;7.13;;;;;;;-0.34;92.87;99931.41;5032349;28;20358;-78
2023/03/08 01:39:25;;;;;;;11.73;7.17;;;;;;;-0.36;92.87;99920.34;5031269;28;20048;-79
2023/03/08 01:41:50;;;;;;;13.27;7.43;;;;;;;-0.36;92.81;99916.94;5031939;28;20032;-79
2023/03/08 01:44:18;;;;;;;13.20;7.57;;;;;;;-0.36;93.09;99906.72;5032370;28;20056;-79
2023/03/08 01:46:43;;;;;;;13.43;8.30;;;;;;;-0.36;93.08;99909.28;5030339;28;20029;-79
2023/03/08 01:49:18;;;;;;;13.13;7.93;;;;;;;-0.35;93.61;99905.88;5032350;28;20029;-79
2023/03/08 01:51:55;;;;;;;13.00;7.30;;;;;;;-0.34;93.56;99903.31;5032466;28;20124;-78
2023/03/08 01:54:50;;;;;;;13.43;8.00;;;;;;;-0.34;93.43;99902.44;5032029;28;20072;-79
2023/03/08 01:57:27;;;;;;;12.63;7.57;;;;;;;-0.34;92.85;99902.44;5030755;28;20037;-79
2023/03/08 02:00:04;;;;;;;14.30;8.17;;;;;;;-0.35;93.12;99895.66;5031315;28;20419;-79
2023/03/08 02:02:37;;;;;;;14.50;8.80;;;;;;;-0.35;93.83;99893.94;5030264;28;20026;-79
2023/03/08 02:05:03;;;;;;;13.87;8.53;;;;;;;-0.33;94.24;99899.03;5032284;28;20031;-79
2023/03/08 02:07:28;;;;;;;15.87;8.50;;;;;;;-0.31;94.31;99889.69;5032054;28;20412;-79
2023/03/08 02:09:53;;;;;;;14.33;8.23;;;;;;;-0.29;94.42;99890.53;5032772;28;20033;-79
2023/03/08 02:12:20;;;;;;;15.13;8.27;;;;;;;-0.27;94.17;99888.84;5030635;28;20487;-79
2023/03/08 02:14:46;;;;;;;15.37;8.63;;;;;;;-0.23;94.78;99885.47;5030070;28;20124;-79
2023/03/08 02:17:11;;;;;;;15.00;8.40;;;;;;;-0.21;94.24;99878.66;5031753;28;20034;-79
2023/03/08 02:19:48;;;;;;;18.10;8.90;;;;;;;-0.18;94.69;99877.78;5014562;28;20083;-79
2023/03/08 02:22:15;;;;;;;16.57;9.07;;;;;;;-0.16;94.89;99871.81;5031063;28;20060;-79
2023/03/08 02:24:40;;;;;;;15.53;8.77;;;;;;;-0.13;94.62;99862.47;5030473;28;20033;-79
2023/03/08 02:27:12;;;;;;;16.07;8.63;;;;;;;-0.11;95.17;99864.19;5031880;28;20033;-79
2023/03/08 02:29:38;;;;;;;17.45;9.27;;;;;;;-0.10;94.43;99855.69;5030398;28;20472;-79
2023/03/08 02:32:03;;;;;;;14.63;8.27;;;;;;;-0.09;94.44;99852.28;5029767;28;20026;-79
2023/03/08 02:34:29;;;;;;;16.20;8.97;;;;;;;-0.10;94.63;99847.13;5031220;28;20056;-79
2023/03/08 02:36:54;;;;;;;15.50;8.57;;;;;;;-0.09;94.48;99848.84;5032590;28;20105;-79
2023/03/08 02:39:19;;;;;;;16.13;8.90;;;;;;;-0.09;94.10;99849.72;5030923;28;20036;-79
2023/03/08 02:41:44;;;;;;;17.33;9.43;;;;;;;-0.08;94.27;99845.44;5030112;28;20021;-79
2023/03/08 02:44:10;;;;;;;16.77;9.27;;;;;;;-0.08;94.05;99842.88;5030109;28;20065;-79
2023/03/08 02:46:35;;;;;;;19.63;10.07;;;;;;;-0.07;94.34;99839.47;5031847;28;20087;-79
2023/03/08 02:49:00;;;;;;;16.53;9.73;;;;;;;-0.07;94.49;99835.19;5030518;28;20082;-79
2023/03/08 02:51:26;;;;;;;20.70;10.20;;;;;;;-0.07;94.29;99831.81;5030198;28;20376;-78
2023/03/08 02:53:51;;;;;;;16.77;9.07;;;;;;;-0.05;94.10;99832.66;5030360;28;20384;-79
2023/03/08 02:56:16;;;;;;;17.97;9.80;;;;;;;-0.06;94.28;99829.25;5030331;28;20048;-79
2023/03/08 02:58:42;;;;;;;19.47;10.07;;;;;;;-0.05;94.71;99827.56;5032170;28;20030;-79
2023/03/08 03:01:11;;;;;;;18.27;9.73;;;;;;;-0.04;94.83;99831.81;5030263;28;20021;-79
2023/03/08 03:03:37;;;;;;;18.10;9.37;;;;;;;-0.04;94.48;99829.25;5030842;28;20024;-79
2023/03/08 03:06:02;;;;;;;17.87;9.70;;;;;;;-0.03;94.95;99830.97;5028975;28;20037;-79
2023/03/08 03:08:29;;;;;;;17.87;9.60;;;;;;;-0.02;94.59;99835.22;5029282;28;20059;-79
2023/03/08 03:10:54;;;;;;;18.57;10.20;;;;;;;-0.02;94.67;99822.44;5030927;28;20100;-79
2023/03/08 03:13:20;;;;;;;18.23;9.60;;;;;;;-0.02;94.68;99827.56;5030820;28;20116;-79
2023/03/08 03:15:45;;;;;;;16.27;9.03;;;;;;;0.00;95.03;99828.41;5014611;28;20026;-79
2023/03/08 03:18:10;;;;;;;18.00;9.57;;;;;;;0.02;94.40;99810.50;5030445;28;20944;-79
2023/03/08 03:20:36;;;;;;;19.50;9.90;;;;;;;0.01;94.47;99796.84;5029389;28;20065;-79
2023/03/08 03:23:01;;;;;;;18.30;9.90;;;;;;;0.02;94.46;99803.69;5031312;28;20037;-79
2023/03/08 03:25:27;;;;;;;18.30;10.30;;;;;;;0.03;94.66;99807.94;5030402;28;20064;-79
2023/03/08 03:27:53;;;;;;;17.97;9.70;;;;;;;0.03;94.16;99800.28;5030164;28;20037;-79
2023/03/08 03:30:19;;;;;;;20.37;9.90;;;;;;;0.04;94.48;99794.31;5030542;28;20069;-79
2023/03/08 03:32:44;;;;;;;17.07;8.80;;;;;;;0.04;94.94;99799.41;5030439;28;20774;-79
2023/03/08 03:35:09;;;;;;;18.73;9.93;;;;;;;0.05;94.22;99793.44;5027425;28;20029;-79
2023/03/08 03:37:35;;;;;;;19.53;10.03;;;;;;;0.06;94.66;99794.31;5031043;28;20522;-79
2023/03/08 03:40:01;;;;;;;18.40;9.97;;;;;;;0.07;94.36;99780.69;5029090;28;20443;-79
2023/03/08 03:42:26;;;;;;;17.27;9.70;;;;;;;0.07;94.19;99766.19;5029815;28;20034;-79
2023/03/08 03:44:51;;;;;;;18.20;9.90;;;;;;;0.09;94.50;99761.06;5030064;28;20029;-79
2023/03/08 03:47:16;;;;;;;17.73;9.47;;;;;;;0.07;94.57;99753.41;5013569;28;20026;-79
2023/03/08 03:49:42;;;;;;;20.97;10.23;;;;;;;0.08;94.94;99755.09;5030381;28;20052;-79
2023/03/08 03:52:07;;;;;;;20.37;10.37;;;;;;;0.10;94.62;99760.19;5030490;28;20025;-79
2023/03/08 03:54:32;;;;;;;20.40;10.47;;;;;;;0.10;94.94;99753.41;5034392;28;20029;-79
2023/03/08 03:56:59;;;;;;;20.90;10.90;;;;;;;0.10;94.62;99757.66;5034546;28;20033;-79
2023/03/08 03:59:25;;;;;;;19.90;10.40;;;;;;;0.11;94.86;99762.78;5033490;28;20052;-79
2023/03/08 04:01:50;;;;;;;20.53;10.27;;;;;;;0.11;94.64;99756.78;5033197;28;20473;-79
2023/03/08 04:04:15;;;;;;;17.60;9.63;;;;;;;0.11;94.89;99750.00;5034876;28;20457;-79
2023/03/08 04:06:41;;;;;;;20.03;10.10;;;;;;;0.10;94.87;99740.63;5034306;28;20032;-79
2023/03/08 04:09:12;;;;;;;19.67;10.37;;;;;;;0.10;94.81;99750.84;5033894;28;20033;-79
2023/03/08 04:11:38;;;;;;;18.33;9.47;;;;;;;0.11;94.67;99746.56;5032376;28;20033;-79
2023/03/08 04:14:04;;;;;;;22.07;10.77;;;;;;;0.12;94.66;99738.03;5033119;28;20502;-79
2023/03/08 04:16:31;;;;;;;19.27;9.80;;;;;;;0.12;94.80;99736.34;5033138;28;20057;-79
2023/03/08 04:18:59;;;;;;;19.43;10.30;;;;;;;0.11;94.77;99731.22;5033671;28;20060;-79
2023/03/08 04:21:26;;;;;;;21.00;10.37;;;;;;;0.12;94.59;99726.13;5035005;28;20021;-79
2023/03/08 04:23:51;;;;;;;18.63;9.27;;;;;;;0.13;94.10;99719.28;5033391;28;20025;-79
2023/03/08 04:26:17;;;;;;;21.33;10.83;;;;;;;0.13;94.75;99714.16;5033798;28;20037;-79
2023/03/08 04:28:42;;;;;;;19.73;10.20;;;;;;;0.12;94.17;99707.34;5033140;28;20492;-79
2023/03/08 04:31:16;;;;;;;18.93;10.33;;;;;;;0.11;94.72;99706.50;5033893;28;20472;-79
2023/03/08 04:33:43;;;;;;;17.80;9.33;;;;;;;0.12;94.53;99709.91;5030618;28;20033;-79
2023/03/08 04:36:08;;;;;;;19.10;9.77;;;;;;;0.13;94.84;99703.94;5030756;28;20379;-79
2023/03/08 04:38:35;;;;;;;20.87;10.23;;;;;;;0.13;94.93;99696.28;5030831;28;20473;-79
2023/03/08 04:41:00;;;;;;;17.87;9.30;;;;;;;0.14;95.04;99691.16;5032568;28;20032;-79
2023/03/08 04:43:25;;;;;;;17.53;9.43;;;;;;;0.16;94.93;99692.88;5033073;28;20037;-79
2023/03/08 04:45:51;;;;;;;17.03;8.90;;;;;;;0.14;94.88;99686.06;5032094;28;20037;-79
2023/03/08 04:48:16;;;;;;;17.90;9.40;;;;;;;0.14;94.23;99683.50;5033136;28;20071;-79
2023/03/08 04:50:42;;;;;;;17.67;9.37;;;;;;;0.16;94.40;99682.66;5031338;28;20037;-79
2023/03/08 04:53:07;;;;;;;18.17;9.80;;;;;;;0.16;94.65;99680.09;5033186;28;20033;-79
2023/03/08 04:55:35;;;;;;;18.73;9.17;;;;;;;0.16;95.02;99667.31;5031920;28;20041;-79
2023/03/08 04:58:00;;;;;;;18.37;9.90;;;;;;;0.18;94.84;99663.00;5016946;28;20032;-79
2023/03/08 05:00:25;;;;;;;17.57;9.33;;;;;;;0.17;94.97;99657.06;5030980;28;20029;-78
2023/03/08 05:02:51;;;;;;;18.37;9.77;;;;;;;0.19;94.66;99662.16;5032587;28;20652;-79
2023/03/08 05:05:16;;;;;;;19.70;9.77;;;;;;;0.18;94.78;99645.97;5030498;28;20017;-79
2023/03/08 05:07:41;;;;;;;19.10;10.03;;;;;;;0.19;95.06;99641.69;5030915;28;20488;-78
2023/03/08 05:10:07;;;;;;;18.30;9.47;;;;;;;0.18;95.01;99632.31;5031891;28;20032;-79
2023/03/08 05:12:32;;;;;;;19.57;9.77;;;;;;;0.17;95.02;99628.09;5031941;28;20461;-79
2023/03/08 05:14:58;;;;;;;19.47;9.53;;;;;;;0.16;94.83;99623.81;5032284;28;20025;-79
2023/03/08 05:17:23;;;;;;;18.90;9.30;;;;;;;0.17;94.67;99628.91;5032563;28;20033;-79
2023/03/08 05:19:49;;;;;;;19.00;9.47;;;;;;;0.19;95.39;99623.78;5031597;28;20524;-79
2023/03/08 05:22:14;;;;;;;19.37;9.73;;;;;;;0.20;95.13;99620.38;5014318;28;20033;-79
2023/03/08 05:24:40;;;;;;;16.53;8.43;;;;;;;0.20;94.98;99612.69;5029874;28;20026;-78
2023/03/08 05:27:06;;;;;;;16.70;8.70;;;;;;;0.22;95.17;99609.31;5030344;28;20059;-79
2023/03/08 05:29:33;;;;;;;16.77;8.90;;;;;;;0.22;94.67;99605.88;5031822;28;20159;-79
2023/03/08 05:32:01;;;;;;;16.87;8.73;;;;;;;0.21;94.94;99601.63;5028452;28;20100;-79
2023/03/08 05:34:26;;;;;;;17.23;8.70;;;;;;;0.21;95.19;99596.50;5031943;28;20022;-79
2023/03/08 05:36:51;;;;;;;16.10;8.67;;;;;;;0.23;94.79;99595.66;5030156;28;20037;-79
2023/03/08 05:39:16;;;;;;;17.40;9.10;;;;;;;0.23;94.78;99589.69;5030811;28;20029;-78
2023/03/08 05:41:42;;;;;;;15.97;8.27;;;;;;;0.24;94.80;99596.50;5030753;28;20167;-79
2023/03/08 05:44:07;;;;;;;17.97;8.93;;;;;;;0.24;94.83;99581.16;5032065;28;20028;-79
2023/03/08 05:46:32;;;;;;;16.23;9.13;;;;;;;0.24;95.02;99571.78;5029607;28;20472;-79
2023/03/08 05:48:57;;;;;;;16.37;8.53;;;;;;;0.24;94.95;99559.00;5032377;28;20040;-78
2023/03/08 05:51:23;;;;;;;14.63;7.77;;;;;;;0.26;94.98;99561.53;5031104;28;20087;-78
2023/03/08 05:53:48;;;;;;;16.47;8.30;;;;;;;0.26;94.66;99551.31;5031146;28;20033;-79
2023/03/08 05:56:19;;;;;;;15.03;7.73;;;;;;;0.25;94.63;99555.59;5029145;28;20405;-79
2023/03/08 05:58:45;;;;;;;14.00;7.70;;;;;;;0.26;94.79;99551.31;5030667;28;20032;-79
2023/03/08 06:01:18;;;;;;;14.63;8.20;;;;;;;0.27;95.04;99548.72;5031853;28;20029;-79
2023/03/08 06:03:45;;;;;;;14.33;8.13;;;;;;;0.27;94.69;99540.22;5028796;28;20052;-79
2023/03/08 06:06:11;;;;;;;14.40;7.33;;;;;;;0.27;95.04;99537.66;5031265;28;20476;-79
2023/03/08 06:08:36;;;;;;;15.13;7.90;;;;;;;0.29;94.68;99530.84;5031422;28;20032;-79
2023/03/08 06:11:02;;;;;;;16.33;8.07;;;;;;;0.28;94.97;99531.69;5030958;28;20017;-79
2023/03/08 06:13:28;;;;;;;15.73;8.07;;;;;;;0.27;94.70;99523.16;5032075;28;20064;-79
2023/03/08 06:15:57;;;;;;;15.73;8.00;;;;;;;0.27;94.69;99525.72;5031947;28;20034;-79
2023/03/08 06:18:23;;;;;;;17.07;8.73;;;;;;;0.28;94.93;99524.00;5031758;28;20063;-79
2023/03/08 06:21:06;;;;;;;16.07;8.03;;;;;;;0.26;94.54;99520.59;5030370;28;20073;-79
2023/03/08 06:23:33;;;;;;;14.87;7.27;;;;;;;0.24;94.57;99522.31;5028813;28;20412;-79
2023/03/08 06:25:58;;;;;;;16.33;7.87;;;;;;;0.21;94.63;99519.78;5031062;28;20112;-79
2023/03/08 06:28:25;;;;;;;15.07;7.73;;;;;;;0.21;94.49;99524.88;5015025;28;20111;-79
2023/03/08 06:30:51;;;;;;;14.67;7.30;;;;;;;0.18;94.72;99525.75;5028739;28;20033;-79
2023/03/08 06:33:18;;;;;;;13.07;7.00;;;;;;;0.16;94.30;99521.53;5030636;28;20087;-79
2023/03/08 06:36:07;;;;;;;11.87;6.27;;;;;;;0.11;94.05;99514.72;5029186;28;20100;-79
2023/03/08 06:38:34;;;;;;;11.43;5.70;;;;;;;0.10;94.38;99515.56;5028432;28;20125;-79
2023/03/08 06:41:00;;;;;;;10.93;5.87;;;;;;;0.07;94.21;99518.13;5030722;28;21429;-79
2023/03/08 06:43:26;;;;;;;9.90;4.93;;;;;;;0.06;94.18;99513.88;5014670;28;20483;-79
2023/03/08 06:45:51;;;;;;;9.77;4.77;;;;;;;0.03;93.60;99513.88;5030834;28;20029;-79
2023/03/08 06:48:17;;;;;;;8.93;4.70;;;;;;;0.02;94.00;99512.19;5032572;28;20025;-79
2023/03/08 06:50:42;;;;;;;12.57;4.97;;;;;;;0.01;93.97;99512.19;5029936;28;20033;-79
2023/03/08 06:53:08;;;;;;;9.00;4.80;;;;;;;0.01;93.88;99509.63;5029391;28;20377;-79
2023/03/08 06:55:35;;;;;;;9.00;4.83;;;;;;;0.00;93.48;99508.81;5029916;28;20864;-79
2023/03/08 06:58:00;;;;;;;9.73;4.83;;;;;;;-0.02;94.22;99502.84;5030639;28;20029;-79
2023/03/08 07:00:26;;;;;;;9.03;4.80;;;;;;;-0.02;94.35;99510.50;5029752;28;20748;-79
2023/03/08 07:02:52;;;;;;;9.47;4.80;;;;;;;-0.05;94.25;99502.84;5026923;28;20041;-79
2023/03/08 07:05:17;;;;;;;9.67;4.50;;;;;;;-0.06;94.14;99513.94;5028743;28;20026;-79
2023/03/08 07:07:43;;;;;;;8.87;4.67;;;;;;;-0.08;93.70;99513.09;5030831;28;20025;-79
2023/03/08 07:10:10;;;;;;;9.03;4.50;;;;;;;-0.07;93.64;99512.22;5030009;28;20057;-79
2023/03/08 07:12:39;;;;;;;6.73;3.83;;;;;;;-0.06;93.80;99509.66;5028993;28;20100;-79
2023/03/08 07:15:06;;;;;;;7.37;4.10;;;;;;;-0.07;94.04;99502.00;5030662;28;20546;-79
2023/03/08 07:17:33;;;;;;;8.40;4.63;;;;;;;-0.06;94.15;99503.72;5028867;28;20041;-79
2023/03/08 07:19:59;;;;;;;8.33;3.83;;;;;;;-0.08;94.27;99502.84;5028995;28;20045;-79
2023/03/08 07:22:24;;;;;;;7.73;3.97;;;;;;;-0.07;94.20;99497.72;5030893;28;20064;-79
2023/03/08 07:24:49;;;;;;;8.90;4.37;;;;;;;-0.06;93.83;99493.47;5030558;28;20530;-79
2023/03/08 07:27:14;;;;;;;7.03;3.90;;;;;;;-0.09;93.78;99490.94;5028749;28;20037;-79
2023/03/08 07:29:40;;;;;;;6.30;3.23;;;;;;;-0.07;94.46;99491.78;5028720;28;20088;-79
2023/03/08 07:32:06;;;;;;;6.93;3.60;;;;;;;-0.08;93.90;99487.53;5030415;28;20043;-79
2023/03/08 07:34:31;;;;;;;6.27;3.30;;;;;;;-0.07;93.82;99487.50;5030244;28;20025;-79
2023/03/08 07:36:56;;;;;;;7.60;3.77;;;;;;;-0.06;93.73;99483.25;5028444;28;20032;-79
2023/03/08 07:39:21;;;;;;;7.83;4.00;;;;;;;-0.06;94.25;99478.13;5029877;28;20098;-79
2023/03/08 07:41:48;;;;;;;6.60;3.57;;;;;;;-0.07;94.06;99481.56;5028620;28;20037;-79
2023/03/08 07:44:14;;;;;;;7.27;4.03;;;;;;;-0.06;93.88;99478.97;5031117;28;20519;-78
2023/03/08 07:46:39;;;;;;;7.53;3.90;;;;;;;-0.05;94.23;99474.72;5013554;28;20033;-78
2023/03/08 07:49:09;;;;;;;7.27;3.73;;;;;;;-0.04;94.41;99466.19;5030679;28;20033;-79
2023/03/08 07:51:35;;;;;;;8.97;4.50;;;;;;;-0.03;94.20;99473.84;5013197;28;20185;-79
2023/03/08 07:54:00;;;;;;;7.53;3.90;;;;;;;-0.03;94.39;99462.78;5030258;28;20542;-78
2023/03/08 07:56:25;;;;;;;9.10;4.10;;;;;;;-0.02;93.63;99459.38;5030174;28;20472;-78
2023/03/08 07:58:50;;;;;;;8.70;4.07;;;;;;;0.00;94.09;99465.34;5030896;28;20036;-78
2023/03/08 08:01:16;;;;;;;7.60;4.57;;;;;;;-0.01;94.15;99461.91;5029400;28;20033;-78
2023/03/08 08:03:42;;;;;;;9.43;4.90;;;;;;;-0.02;94.04;99462.78;5030591;28;20475;-78
2023/03/08 08:06:08;;;;;;;10.00;4.70;;;;;;;-0.05;94.33;99455.13;5030365;28;20075;-78
2023/03/08 08:08:33;;;;;;;7.90;4.20;;;;;;;-0.05;94.42;99456.84;5030921;28;20087;-78
2023/03/08 08:10:59;;;;;;;7.87;4.33;;;;;;;-0.06;94.00;99447.47;5029209;28;20097;-78
2023/03/08 08:13:24;;;;;;;7.80;4.10;;;;;;;-0.05;93.96;99454.28;5031154;28;20036;-78
2023/03/08 08:16:00;;;;;;;7.10;4.03;;;;;;;-0.09;94.01;99438.13;5029488;28;20026;-79
2023/03/08 08:18:26;;;;;;;7.40;4.43;;;;;;;-0.06;93.87;99444.91;5030243;28;20025;-79
2023/03/08 08:21:03;;;;;;;8.10;4.37;;;;;;;-0.07;94.41;99436.38;5028592;28;20037;-78
2023/03/08 08:23:29;;;;;;;6.87;3.87;;;;;;;-0.07;93.35;99436.38;5028486;28;20064;-79
2023/03/08 08:25:54;;;;;;;6.60;4.03;;;;;;;-0.06;94.12;99439.78;5029861;28;20045;-79
2023/03/08 08:28:21;;;;;;;6.80;3.93;;;;;;;-0.05;93.45;99426.16;5028931;28;20056;-79
2023/03/08 08:31:05;;;;;;;7.40;3.97;;;;;;;-0.09;93.95;99422.78;5027014;28;20026;-79
2023/03/08 08:33:31;;;;;;;7.50;4.17;;;;;;;-0.10;93.33;99418.53;5027021;28;20025;-80
2023/03/08 08:35:57;;;;;;;8.70;4.40;;;;;;;-0.13;93.59;99421.09;5028658;28;20021;-79
2023/03/08 08:38:23;;;;;;;5.80;3.47;;;;;;;-0.17;93.62;99415.13;5013971;28;20025;-79
2023/03/08 08:40:49;;;;;;;7.33;4.20;;;;;;;-0.17;93.61;99417.66;5030052;28;20032;-79
2023/03/08 08:43:15;;;;;;;8.77;4.33;;;;;;;-0.18;93.76;99408.34;5032981;28;20025;-79
2023/03/08 08:45:45;;;;;;;8.17;4.83;;;;;;;-0.22;94.29;99396.41;5031080;28;20028;-79
2023/03/08 08:48:11;;;;;;;7.13;4.07;;;;;;;-0.24;93.71;99393.03;5032211;28;20025;-80
2023/03/08 08:50:38;;;;;;;6.77;4.00;;;;;;;-0.21;93.27;99384.47;5032524;28;20128;-79
2023/03/08 08:53:04;;;;;;;7.23;4.10;;;;;;;-0.22;93.37;99390.44;5030772;28;20048;-80
2023/03/08 08:55:29;;;;;;;6.57;3.60;;;;;;;-0.23;93.13;99394.72;5033161;28;20025;-80
2023/03/08 08:57:54;;;;;;;5.30;3.13;;;;;;;-0.22;93.31;99398.97;5029629;28;20028;-80
2023/03/08 09:00:20;;;;;;;4.87;2.83;;;;;;;-0.18;93.37;99403.22;5030999;28;20037;-80
2023/03/08 09:02:45;;;;;;;5.00;2.40;;;;;;;-0.18;93.80;99395.56;5030217;28;20542;-80
2023/03/08 09:05:10;;;;;;;4.70;2.40;;;;;;;-0.13;93.50;99404.88;5029268;28;20564;-80
2023/03/08 09:07:35;;;;;;;6.03;2.53;;;;;;;-0.09;93.13;99410.00;5031177;28;20064;-80
2023/03/08 09:10:01;;;;;;;4.20;2.40;;;;;;;-0.06;93.04;99409.94;5027484;28;20029;-80
2023/03/08 09:12:28;;;;;;;4.20;2.33;;;;;;;-0.03;93.19;99411.66;5010219;28;20108;-81
2023/03/08 09:14:53;;;;;;;6.57;3.10;;;;;;;0.01;93.26;99408.22;5029305;28;20033;-81
2023/03/08 09:17:19;;;;;;;5.97;3.17;;;;;;;0.02;93.09;99409.06;5030737;28;20030;-80
2023/03/08 09:19:44;;;;;;;9.70;4.07;;;;;;;0.03;92.94;99411.59;5028656;28;20044;-81
2023/03/08 09:22:10;;;;;;;5.57;3.20;;;;;;;0.02;93.39;99398.84;5026025;28;20111;-82
2023/03/08 09:24:35;;;;;;;7.80;4.10;;;;;;;0.01;92.85;99380.09;5032015;28;20025;-79
2023/03/08 09:27:03;;;;;;;7.07;3.87;;;;;;;0.02;92.82;99370.72;5028188;28;20056;-81
2023/03/08 09:29:28;;;;;;;6.97;3.93;;;;;;;0.01;92.90;99357.06;5031166;28;20033;-81
2023/03/08 09:31:54;;;;;;;6.37;3.93;;;;;;;0.05;92.70;99345.13;5031189;28;20033;-81
2023/03/08 09:34:19;;;;;;;6.77;3.87;;;;;;;0.03;93.07;99350.25;5030360;28;20047;-81
2023/03/08 09:36:44;;;;;;;8.17;4.60;;;;;;;0.07;93.32;99336.59;5035082;28;20086;-81
2023/03/08 09:39:12;;;;;;;8.37;5.00;;;;;;;0.12;93.27;99339.09;5013388;28;20032;-81
2023/03/08 09:41:46;;;;;;;9.60;5.17;;;;;;;0.17;93.13;99346.75;5031989;28;20062;-81
2023/03/08 09:44:23;;;;;;;9.97;5.63;;;;;;;0.25;93.27;99339.88;5032962;28;20148;-81
2023/03/08 09:47:03;;;;;;;9.43;5.70;;;;;;;0.34;93.16;99337.25;5032661;28;20036;-81
2023/03/08 09:49:31;;;;;;;10.70;6.40;;;;;;;0.39;92.42;99332.09;5031431;28;20037;-81
2023/03/08 09:52:25;;;;;;;12.13;6.40;;;;;;;0.41;92.24;99326.09;5033840;28;20044;-81
2023/03/08 09:54:51;;;;;;;12.43;6.97;;;;;;;0.42;92.30;99329.50;5015148;28;20041;-81
2023/03/08 09:57:25;;;;;;;11.67;6.20;;;;;;;0.49;92.45;99317.50;5029627;28;20033;-81
2023/03/08 09:59:57;;;;;;;14.10;7.70;;;;;;;0.56;92.20;99308.88;5030878;28;20044;-81
2023/03/08 10:02:37;;;;;;;14.55;7.50;;;;;;;0.68;92.40;99313.91;5035431;28;20041;-81
2023/03/08 10:05:22;;;;;;;13.03;7.37;;;;;;;0.78;92.32;99321.47;5033604;28;20459;-81
2023/03/08 10:07:59;;;;;;;14.00;8.43;;;;;;;0.87;91.81;99309.44;5031596;28;20140;-82
2023/03/08 10:10:59;;;;;;;16.03;8.87;;;;;;;0.93;91.21;99295.72;5031538;28;20035;-83
2023/03/08 10:13:34;;;;;;;14.07;7.87;;;;;;;0.97;91.25;99289.69;5032027;28;20025;-82
2023/03/08 10:16:18;;;;;;;15.07;8.43;;;;;;;1.01;91.36;99299.03;5030079;28;20032;-82
2023/03/08 10:19:03;;;;;;;16.53;9.00;;;;;;;1.08;91.35;99301.50;5031045;28;20053;-81
2023/03/08 10:21:32;;;;;;;15.77;8.33;;;;;;;1.19;90.83;99304.81;5033976;28;20034;-81
2023/03/08 10:24:01;;;;;;;16.93;9.03;;;;;;;1.25;90.43;99304.72;5032835;28;20029;-81
2023/03/08 10:26:27;;;;;;;14.90;8.43;;;;;;;1.27;90.26;99313.25;5033933;28;20033;-81
2023/03/08 10:28:53;;;;;;;15.40;8.20;;;;;;;1.27;90.40;99308.13;5031646;28;20111;-81
2023/03/08 10:31:22;;;;;;;14.63;8.27;;;;;;;1.32;90.08;99313.19;5030355;28;20056;-81
2023/03/08 10:33:52;;;;;;;13.30;7.80;;;;;;;1.35;90.14;99308.03;5032796;28;20418;-81
2023/03/08 10:36:21;;;;;;;15.13;8.60;;;;;;;1.39;89.72;99304.56;5034197;28;20033;-80
2023/03/08 10:38:58;;;;;;;16.03;7.97;;;;;;;1.38;89.57;99290.03;5034240;28;20036;-80
2023/03/08 10:41:25;;;;;;;14.33;7.63;;;;;;;1.39;89.89;99294.31;5028954;28;20059;-81
2023/03/08 10:43:53;;;;;;;14.90;7.97;;;;;;;1.43;89.68;99293.41;5031472;28;20124;-82
2023/03/08 10:46:24;;;;;;;11.93;7.20;;;;;;;1.42;89.93;99283.16;5028836;28;20034;-83
2023/03/08 10:48:50;;;;;;;14.48;7.68;;;;;;;1.47;89.82;99283.94;5032396;28;20033;-81
2023/03/08 10:51:18;;;;;;;11.27;6.80;;;;;;;1.51;89.75;99283.06;5033023;28;20030;-81
2023/03/08 10:53:55;;;;;;;12.53;7.10;;;;;;;1.50;89.51;99273.66;5032816;28;20135;-81
2023/03/08 10:56:29;;;;;;;10.50;6.63;;;;;;;1.52;89.67;99277.06;5029427;28;20496;-79
2023/03/08 10:58:56;;;;;;;11.00;6.60;;;;;;;1.57;89.41;99270.13;5031142;28;20036;-78
2023/03/08 11:01:47;;;;;;;12.03;7.00;;;;;;;1.59;88.95;99265.81;5025901;28;20099;-81
2023/03/08 11:04:15;;;;;;;11.57;6.63;;;;;;;1.56;88.84;99265.88;5030827;28;20340;-81
2023/03/08 11:06:41;;;;;;;9.93;6.70;;;;;;;1.57;88.83;99267.56;5033597;28;20098;-81
2023/03/08 11:09:26;;;;;;;9.83;5.90;;;;;;;1.63;89.17;99280.31;5029232;28;20037;-80
2023/03/08 11:11:52;;;;;;;11.63;6.50;;;;;;;1.73;89.09;99277.59;5029058;28;20059;-79
2023/03/08 11:14:17;;;;;;;10.23;6.17;;;;;;;1.76;88.62;99280.13;5029563;28;20488;-79
2023/03/08 11:17:04;;;;;;;10.13;6.53;;;;;;;1.79;88.42;99278.34;5027120;28;20346;-79
2023/03/08 11:19:35;;;;;;;9.43;6.20;;;;;;;1.75;88.15;99293.81;5026233;28;20498;-79
2023/03/08 11:22:15;;;;;;;10.77;5.97;;;;;;;1.72;88.38;99283.59;5026568;28;20044;-80
2023/03/08 11:24:55;;;;;;;9.17;5.80;;;;;;;1.67;88.57;99276.84;5029673;28;20048;-80
2023/03/08 11:27:46;;;;;;;10.00;5.90;;;;;;;1.67;88.25;99286.22;5029966;28;20033;-81
2023/03/08 11:30:12;;;;;;;9.05;5.40;;;;;;;1.62;88.41;99294.00;5024442;28;20484;-80
2023/03/08 11:32:49;;;;;;;9.27;5.83;;;;;;;1.59;88.31;99294.03;5027345;28;20438;-79
2023/03/08 11:35:27;;;;;;;8.73;5.83;;;;;;;1.59;88.35;99270.97;5030796;28;20033;-79